Time;durP1;ratioP1;P1;durP2;ratioP2;P2;SDS_P1;SDS_P2;PMS_P1;PMS_P2;Temp;Humidity;BMP_temperature;BMP_pressure;BME280_temperature;BME280_humidity;BME280_pressure;Samples;Min_cycle;Max_cycle;Signal;HPM_P1;HPM_P2
2023/05/07 00:01:31;;;;;;;8.05;4.80;;;;;;;10.20;66.54;95007.22;5072435;28;20401;-72
2023/05/07 00:03:57;;;;;;;5.22;3.92;;;;;;;10.34;66.17;95018.34;5072547;28;20484;-72
2023/05/07 00:06:22;;;;;;;5.63;4.82;;;;;;;10.14;67.22;95018.09;5055686;28;20068;-72
2023/05/07 00:08:48;;;;;;;4.97;3.95;;;;;;;10.04;66.56;94999.78;5072535;28;20039;-72
2023/05/07 00:11:13;;;;;;;5.35;4.32;;;;;;;10.17;66.88;95017.84;5089218;28;20028;-72
2023/05/07 00:13:39;;;;;;;5.43;4.40;;;;;;;10.23;66.36;95017.38;5055722;28;20417;-72
2023/05/07 00:16:04;;;;;;;6.50;4.40;;;;;;;10.23;66.24;95022.56;5090419;28;20026;-72
2023/05/07 00:18:30;;;;;;;5.82;4.30;;;;;;;10.31;66.08;95018.53;5055672;28;20051;-72
2023/05/07 00:20:56;;;;;;;5.25;4.28;;;;;;;10.14;66.13;95007.72;5072385;28;20032;-72
2023/05/07 00:23:22;;;;;;;5.50;4.47;;;;;;;10.06;66.68;95012.66;5072243;28;20036;-72
2023/05/07 00:25:47;;;;;;;5.78;4.20;;;;;;;10.19;66.63;95026.31;5072284;28;20048;-72
2023/05/07 00:28:13;;;;;;;6.00;4.57;;;;;;;10.07;66.81;95022.09;5072378;28;20028;-72
2023/05/07 00:30:38;;;;;;;6.53;5.55;;;;;;;9.81;67.51;94990.38;5072208;28;20036;-72
2023/05/07 00:33:03;;;;;;;7.40;5.70;;;;;;;9.99;67.90;95021.84;5089303;28;20028;-72
2023/05/07 00:35:29;;;;;;;9.68;6.22;;;;;;;9.99;68.22;95029.66;5090206;28;20036;-72
2023/05/07 00:37:55;;;;;;;7.63;6.07;;;;;;;9.82;68.71;95034.34;5055767;28;20413;-72
2023/05/07 00:40:20;;;;;;;8.05;6.05;;;;;;;9.40;70.09;95035.84;5088994;28;20517;-72
2023/05/07 00:42:46;;;;;;;7.82;5.65;;;;;;;9.23;70.60;95037.09;5088916;28;20081;-72
2023/05/07 00:45:13;;;;;;;7.00;5.05;;;;;;;9.38;70.66;95041.13;5093862;28;20081;-72
2023/05/07 00:47:39;;;;;;;6.93;4.70;;;;;;;9.35;70.42;95037.94;5075930;28;20106;-72
2023/05/07 00:50:05;;;;;;;6.10;4.68;;;;;;;9.26;70.47;95031.66;5092585;28;20039;-72
2023/05/07 00:52:31;;;;;;;6.13;4.78;;;;;;;9.18;70.55;95027.03;5092841;28;20390;-72
2023/05/07 00:54:56;;;;;;;10.75;5.20;;;;;;;9.18;70.52;95036.59;5075719;28;20028;-72
2023/05/07 00:57:22;;;;;;;5.18;4.68;;;;;;;9.10;70.92;95036.31;5075622;28;20025;-72
2023/05/07 00:59:48;;;;;;;7.28;4.53;;;;;;;9.00;71.12;95035.34;5058707;28;20574;-72
2023/05/07 01:02:13;;;;;;;7.10;4.50;;;;;;;8.86;70.95;95021.66;5075534;28;20031;-72
2023/05/07 01:04:39;;;;;;;6.30;4.88;;;;;;;8.71;70.76;95036.50;5093351;28;20046;-72
2023/05/07 01:07:05;;;;;;;6.90;4.50;;;;;;;8.46;72.03;95042.63;5093718;28;20035;-72
2023/05/07 01:09:30;;;;;;;8.60;5.35;;;;;;;8.29;72.32;95017.06;5075342;28;20028;-72
2023/05/07 01:11:57;;;;;;;6.55;5.32;;;;;;;8.57;72.75;95053.97;5058582;28;20032;-72
2023/05/07 01:14:22;;;;;;;6.90;4.88;;;;;;;8.77;71.95;95045.59;5075098;28;20032;-72
2023/05/07 01:16:48;;;;;;;6.35;4.63;;;;;;;8.92;71.40;95049.69;5058385;28;20028;-72
2023/05/07 01:19:15;;;;;;;5.63;4.97;;;;;;;8.96;71.34;95047.69;5074990;28;20469;-72
2023/05/07 01:21:43;;;;;;;7.30;5.85;;;;;;;8.86;71.93;95034.59;5075359;28;20024;-72
2023/05/07 01:24:09;;;;;;;6.97;5.55;;;;;;;8.91;71.63;95037.69;5074921;28;20504;-72
2023/05/07 01:26:34;;;;;;;7.68;5.30;;;;;;;9.07;71.24;95041.75;5074885;28;20032;-72
2023/05/07 01:29:00;;;;;;;7.35;5.88;;;;;;;9.13;71.18;95042.09;5074939;28;20035;-72
2023/05/07 01:31:25;;;;;;;9.40;6.10;;;;;;;9.18;71.26;95040.00;5092951;28;20543;-72
2023/05/07 01:33:51;;;;;;;7.53;5.88;;;;;;;9.13;71.71;95046.47;5092968;28;20028;-72
2023/05/07 01:36:17;;;;;;;7.50;5.68;;;;;;;9.14;71.26;95042.97;5074728;28;20567;-72
2023/05/07 01:38:42;;;;;;;9.13;6.07;;;;;;;9.06;71.66;95038.31;5074767;28;20056;-72
2023/05/07 01:41:08;;;;;;;9.38;5.90;;;;;;;9.15;71.44;95035.06;5091544;28;20036;-72
2023/05/07 01:43:33;;;;;;;7.60;6.03;;;;;;;9.20;70.93;95039.91;5074737;28;20059;-72
2023/05/07 01:45:59;;;;;;;6.95;6.15;;;;;;;8.99;72.10;95039.69;5074607;28;20020;-72
2023/05/07 01:48:24;;;;;;;9.57;6.70;;;;;;;9.12;71.62;95034.47;5074588;28;20427;-72
2023/05/07 01:50:50;;;;;;;7.20;6.30;;;;;;;9.25;70.86;95042.13;5092512;28;20046;-72
2023/05/07 01:53:16;;;;;;;9.43;6.57;;;;;;;9.24;70.84;95041.31;5074492;28;20056;-72
2023/05/07 01:55:41;;;;;;;10.02;6.78;;;;;;;9.25;71.10;95032.63;5092122;28;20035;-72
2023/05/07 01:58:07;;;;;;;8.30;6.82;;;;;;;9.41;70.76;95032.28;5093106;28;20107;-72
2023/05/07 02:00:32;;;;;;;9.05;6.38;;;;;;;9.39;70.90;95032.41;5092615;28;20028;-72
2023/05/07 02:02:58;;;;;;;7.68;6.53;;;;;;;9.42;70.78;95030.50;5091240;28;20119;-72
2023/05/07 02:05:23;;;;;;;9.80;7.10;;;;;;;9.49;70.29;95021.34;5074515;28;20482;-72
2023/05/07 02:07:49;;;;;;;8.77;6.97;;;;;;;9.51;70.60;95016.88;5074377;28;20028;-71
2023/05/07 02:10:14;;;;;;;9.35;6.90;;;;;;;9.56;70.29;95012.19;5074032;28;20078;-72
2023/05/07 02:12:40;;;;;;;10.77;7.13;;;;;;;9.56;69.98;95012.19;5074238;28;20038;-72
2023/05/07 02:15:05;;;;;;;8.88;7.30;;;;;;;9.39;70.69;94996.13;5057410;28;20028;-72
2023/05/07 02:17:34;;;;;;;8.52;7.40;;;;;;;9.43;70.49;94995.88;5090881;28;20479;-72
2023/05/07 02:19:59;;;;;;;9.27;7.30;;;;;;;9.48;70.41;94991.19;5092003;28;20036;-72
2023/05/07 02:22:25;;;;;;;8.10;6.80;;;;;;;9.43;70.31;94978.56;5073966;28;20036;-72
2023/05/07 02:24:51;;;;;;;9.80;7.80;;;;;;;9.16;70.81;94978.84;5073945;28;20028;-71
2023/05/07 02:27:16;;;;;;;8.80;7.03;;;;;;;9.13;70.91;94985.09;5073997;28;20054;-71
2023/05/07 02:29:41;;;;;;;8.07;7.20;;;;;;;9.07;71.17;94979.53;5091918;28;20040;-71
2023/05/07 02:32:07;;;;;;;9.15;6.57;;;;;;;9.15;70.69;94992.75;5073666;28;20024;-71
2023/05/07 02:34:32;;;;;;;11.55;6.80;;;;;;;9.20;70.65;94995.84;5056909;28;20024;-71
2023/05/07 02:36:58;;;;;;;10.93;7.30;;;;;;;9.03;70.96;94999.69;5073622;28;20040;-71
2023/05/07 02:39:23;;;;;;;8.68;6.63;;;;;;;8.99;71.36;95005.19;5073502;28;20028;-71
2023/05/07 02:41:49;;;;;;;8.60;7.10;;;;;;;8.86;71.75;94993.16;5090345;28;20062;-71
2023/05/07 02:44:14;;;;;;;9.25;7.30;;;;;;;8.68;72.71;94999.66;5073657;28;20039;-71
2023/05/07 02:46:40;;;;;;;10.55;7.50;;;;;;;8.61;74.01;94999.28;5091608;28;20039;-71
2023/05/07 02:49:05;;;;;;;9.48;7.72;;;;;;;8.71;73.52;94986.47;5073377;28;20036;-71
2023/05/07 02:51:31;;;;;;;9.18;8.00;;;;;;;8.90;73.40;95004.94;5090429;28;20046;-71
2023/05/07 02:53:56;;;;;;;11.52;8.68;;;;;;;8.92;73.29;94994.47;5091450;28;20040;-71
2023/05/07 02:56:22;;;;;;;10.30;7.85;;;;;;;8.95;73.24;94983.88;5073110;28;20042;-71
2023/05/07 02:58:47;;;;;;;10.77;8.60;;;;;;;8.81;73.73;95000.44;5073212;28;20036;-71
2023/05/07 03:01:13;;;;;;;12.80;8.93;;;;;;;8.63;74.67;95002.56;5056435;28;20043;-71
2023/05/07 03:03:39;;;;;;;11.77;8.20;;;;;;;8.54;75.09;94981.69;5089854;28;20074;-71
2023/05/07 03:06:05;;;;;;;12.93;8.30;;;;;;;8.79;74.22;95002.28;5056175;28;20498;-71
2023/05/07 03:08:30;;;;;;;11.10;8.57;;;;;;;8.83;73.95;94997.72;5090530;28;20032;-71
2023/05/07 03:10:56;;;;;;;13.00;9.55;;;;;;;8.61;75.09;95001.03;5072945;28;20020;-71
2023/05/07 03:13:21;;;;;;;10.40;8.57;;;;;;;8.75;74.58;94989.66;5089959;28;20579;-71
2023/05/07 03:15:47;;;;;;;12.85;9.45;;;;;;;8.63;75.35;95002.56;5072970;28;20456;-71
2023/05/07 03:18:12;;;;;;;13.35;10.05;;;;;;;8.64;75.48;95006.00;5073059;28;20032;-71
2023/05/07 03:20:38;;;;;;;11.63;9.30;;;;;;;8.58;75.73;94999.50;5090892;28;20039;-70
2023/05/07 03:23:03;;;;;;;16.05;10.50;;;;;;;8.74;75.62;95006.97;5091507;28;20406;-71
2023/05/07 03:25:29;;;;;;;12.57;9.10;;;;;;;8.87;75.30;95015.53;5090887;28;20059;-71
2023/05/07 03:27:55;;;;;;;12.38;9.43;;;;;;;8.92;74.73;95010.84;5073272;28;20020;-71
2023/05/07 03:30:21;;;;;;;12.75;9.05;;;;;;;9.03;74.91;95014.41;5056074;28;20081;-71
2023/05/07 03:32:46;;;;;;;13.85;10.07;;;;;;;9.03;74.84;95014.41;5072947;28;20441;-71
2023/05/07 03:35:12;;;;;;;11.82;9.57;;;;;;;9.12;74.89;95017.13;5090906;28;20043;-71
2023/05/07 03:37:38;;;;;;;13.68;10.23;;;;;;;9.17;74.74;95011.63;5091168;28;20024;-71
2023/05/07 03:40:04;;;;;;;14.98;10.73;;;;;;;9.37;74.61;95013.53;5072711;28;20031;-71
2023/05/07 03:42:29;;;;;;;16.45;11.63;;;;;;;9.45;74.80;95012.97;5091113;28;20082;-71
2023/05/07 03:44:55;;;;;;;13.05;9.63;;;;;;;9.31;74.69;94980.31;5072691;28;20028;-71
2023/05/07 03:47:21;;;;;;;12.77;9.73;;;;;;;9.50;74.70;95018.66;5091080;28;20089;-71
2023/05/07 03:49:46;;;;;;;13.77;10.23;;;;;;;9.53;74.51;95018.41;5089593;28;20032;-71
2023/05/07 03:52:11;;;;;;;13.98;9.57;;;;;;;9.52;74.11;95015.94;5056073;28;20039;-71
2023/05/07 03:54:37;;;;;;;13.13;10.50;;;;;;;9.78;73.74;95026.94;5055914;28;20460;-71
2023/05/07 03:57:02;;;;;;;12.40;10.10;;;;;;;9.89;73.42;95020.91;5055968;28;20028;-71
2023/05/07 03:59:28;;;;;;;13.20;9.65;;;;;;;9.89;73.56;95021.75;5090528;28;20032;-71
2023/05/07 04:01:53;;;;;;;13.93;10.38;;;;;;;9.87;74.02;95036.59;5072669;28;20033;-71
2023/05/07 04:04:20;;;;;;;13.25;9.88;;;;;;;10.15;73.49;95027.50;5072449;28;20055;-71
2023/05/07 04:06:45;;;;;;;12.98;9.65;;;;;;;10.35;72.64;95027.75;5089442;28;20497;-71
2023/05/07 04:09:10;;;;;;;13.15;9.95;;;;;;;10.21;72.28;95029.63;5090655;28;20039;-71
2023/05/07 04:11:36;;;;;;;13.35;10.27;;;;;;;10.70;70.61;95027.59;5055678;28;20040;-71
2023/05/07 04:14:01;;;;;;;14.77;10.02;;;;;;;11.16;69.24;95031.66;5072584;28;20117;-71
2023/05/07 04:16:27;;;;;;;11.52;9.13;;;;;;;11.59;67.68;95039.34;5072392;28;20035;-71
2023/05/07 04:18:52;;;;;;;12.70;9.13;;;;;;;11.89;66.35;95032.53;5074171;28;20039;-71
2023/05/07 04:21:19;;;;;;;13.40;9.60;;;;;;;12.20;64.93;95050.75;5094345;28;20024;-71
2023/05/07 04:23:45;;;;;;;12.05;8.80;;;;;;;12.74;63.37;95052.19;5076183;28;20032;-72
2023/05/07 04:26:10;;;;;;;11.23;9.20;;;;;;;12.87;62.94;95046.69;5076149;28;20185;-71
2023/05/07 04:28:36;;;;;;;12.75;9.60;;;;;;;13.00;62.39;95051.66;5076121;28;20036;-71
2023/05/07 04:31:01;;;;;;;11.38;9.95;;;;;;;12.99;62.47;95056.06;5076036;28;20480;-71
2023/05/07 04:33:27;;;;;;;11.68;9.15;;;;;;;13.27;61.79;95041.41;5059355;28;20460;-71
2023/05/07 04:35:52;;;;;;;12.38;9.50;;;;;;;13.11;61.17;95012.41;5059303;28;20205;-71
2023/05/07 04:38:18;;;;;;;12.32;9.38;;;;;;;13.67;60.41;95058.66;5075985;28;20024;-71
2023/05/07 04:40:44;;;;;;;10.93;8.65;;;;;;;13.68;60.29;95047.28;5092677;28;20028;-71
2023/05/07 04:43:09;;;;;;;11.27;9.23;;;;;;;13.96;59.55;95073.47;5094399;28;20069;-72
2023/05/07 04:45:35;;;;;;;12.38;9.40;;;;;;;13.58;60.12;95056.91;5093821;28;20024;-71
2023/05/07 04:48:01;;;;;;;11.93;9.32;;;;;;;13.96;60.22;95068.25;5094308;28;20024;-71
2023/05/07 04:50:30;;;;;;;10.25;8.23;;;;;;;14.21;60.60;95074.63;5075555;28;20089;-71
2023/05/07 04:52:55;;;;;;;12.73;9.98;;;;;;;14.15;59.34;95065.56;5075957;28;20093;-72
2023/05/07 04:55:21;;;;;;;11.18;9.13;;;;;;;14.33;58.20;95052.56;5075670;28;20032;-71
2023/05/07 04:57:47;;;;;;;11.70;9.63;;;;;;;14.53;58.19;95075.06;5075679;28;20098;-71
2023/05/07 05:00:16;;;;;;;14.07;9.73;;;;;;;14.41;57.71;95055.28;5093548;28;20040;-71
2023/05/07 05:02:41;;;;;;;11.38;9.50;;;;;;;14.67;56.67;95065.91;5092334;28;20042;-71
2023/05/07 05:05:07;;;;;;;10.70;9.43;;;;;;;14.73;57.16;95060.09;5075401;28;20028;-71
2023/05/07 05:07:33;;;;;;;9.85;8.63;;;;;;;14.84;57.05;95066.09;5092380;28;20024;-71
2023/05/07 05:09:58;;;;;;;10.13;8.75;;;;;;;15.05;56.86;95071.88;5093463;28;20031;-71
2023/05/07 05:12:24;;;;;;;12.02;9.55;;;;;;;15.07;56.59;95063.88;5075230;28;20036;-71
2023/05/07 05:14:49;;;;;;;11.85;9.00;;;;;;;15.08;56.41;95060.31;5093312;28;20024;-72
2023/05/07 05:17:15;;;;;;;10.90;8.60;;;;;;;15.17;57.13;95062.03;5075127;28;20024;-71
2023/05/07 05:19:40;;;;;;;12.80;9.43;;;;;;;15.28;56.66;95068.84;5075145;28;20032;-71
2023/05/07 05:22:06;;;;;;;13.43;8.60;;;;;;;15.45;56.13;95054.91;5093413;28;20034;-71
2023/05/07 05:24:31;;;;;;;11.43;9.05;;;;;;;15.38;55.70;95065.16;5075073;28;20032;-71
2023/05/07 05:26:57;;;;;;;11.93;8.57;;;;;;;15.62;55.25;95061.09;5074913;28;20086;-71
2023/05/07 05:29:22;;;;;;;11.93;8.95;;;;;;;15.50;55.81;95059.72;5091341;28;20032;-71
2023/05/07 05:31:48;;;;;;;12.35;8.73;;;;;;;15.25;56.06;95066.53;5091275;28;20402;-72
2023/05/07 05:34:13;;;;;;;11.75;8.60;;;;;;;15.55;55.70;95065.31;5074903;28;20020;-71
2023/05/07 05:36:39;;;;;;;11.45;9.32;;;;;;;15.70;55.72;95066.44;5074847;28;20089;-71
2023/05/07 05:39:04;;;;;;;10.88;8.48;;;;;;;15.68;55.03;95055.28;5074752;28;20028;-71
2023/05/07 05:41:30;;;;;;;11.73;8.75;;;;;;;15.37;55.93;95066.13;5074625;28;20039;-71
2023/05/07 05:43:55;;;;;;;12.18;9.00;;;;;;;15.41;56.25;95080.56;5092798;28;20043;-71
2023/05/07 05:46:21;;;;;;;10.25;8.45;;;;;;;15.78;55.15;95063.06;5091489;28;20036;-71
2023/05/07 05:48:46;;;;;;;11.18;8.45;;;;;;;16.04;54.61;95068.28;5074515;28;20043;-71
2023/05/07 05:51:12;;;;;;;11.82;8.93;;;;;;;15.41;55.31;95064.88;5092462;28;20039;-71
2023/05/07 05:53:37;;;;;;;12.45;9.38;;;;;;;15.96;53.62;95069.06;5074496;28;20039;-71
2023/05/07 05:56:03;;;;;;;12.07;9.45;;;;;;;15.96;54.10;95070.88;5074413;28;20409;-71
2023/05/07 05:58:28;;;;;;;10.73;8.60;;;;;;;16.21;53.09;95066.59;5057696;28;20036;-72
2023/05/07 06:00:54;;;;;;;13.02;9.57;;;;;;;15.61;54.27;95069.94;5074063;28;20490;-71
2023/05/07 06:03:20;;;;;;;11.55;9.70;;;;;;;15.57;55.12;95065.97;5057520;28;20496;-71
2023/05/07 06:05:45;;;;;;;11.73;9.65;;;;;;;15.99;54.72;95071.41;5091059;28;20478;-71
2023/05/07 06:08:10;;;;;;;11.48;9.43;;;;;;;16.14;53.88;95061.16;5074371;28;20043;-71
2023/05/07 06:10:37;;;;;;;11.68;9.77;;;;;;;16.46;52.91;95070.97;5090929;28;20035;-72
2023/05/07 06:13:02;;;;;;;13.27;10.00;;;;;;;16.20;53.77;95064.97;5057524;28;20067;-71
2023/05/07 06:15:28;;;;;;;11.55;9.25;;;;;;;16.07;54.59;95073.22;5092113;28;20039;-71
2023/05/07 06:17:55;;;;;;;11.35;9.73;;;;;;;16.42;53.46;95080.16;5074107;28;20036;-71
2023/05/07 06:20:21;;;;;;;12.57;10.27;;;;;;;16.45;53.41;95077.22;5090763;28;20036;-71
2023/05/07 06:22:46;;;;;;;13.32;9.35;;;;;;;16.62;53.06;95069.41;5090747;28;20460;-71
2023/05/07 06:25:11;;;;;;;9.95;8.90;;;;;;;16.58;52.88;95062.88;5073878;28;20055;-71
2023/05/07 06:27:39;;;;;;;12.38;9.30;;;;;;;16.02;54.52;95055.38;5073827;28;20035;-71
2023/05/07 06:30:05;;;;;;;11.80;9.18;;;;;;;16.18;54.58;95053.81;5074176;28;20120;-71
2023/05/07 06:32:31;;;;;;;13.50;9.27;;;;;;;16.44;53.79;95054.59;5090740;28;20101;-71
2023/05/07 06:34:56;;;;;;;11.52;9.00;;;;;;;16.30;54.50;95060.44;5073600;28;20490;-71
2023/05/07 06:37:21;;;;;;;12.05;9.02;;;;;;;16.74;53.68;95057.66;5073645;28;20571;-71
2023/05/07 06:39:47;;;;;;;13.80;9.93;;;;;;;16.60;52.77;95055.63;5091671;28;20028;-71
2023/05/07 06:42:12;;;;;;;12.57;9.00;;;;;;;16.40;53.81;95045.41;5090309;28;20034;-71
2023/05/07 06:44:38;;;;;;;11.00;8.35;;;;;;;16.46;53.31;95042.13;5073426;28;20506;-71
2023/05/07 06:47:05;;;;;;;12.45;8.88;;;;;;;16.89;52.86;95045.63;5090408;28;20023;-71
2023/05/07 06:49:31;;;;;;;9.48;8.40;;;;;;;17.27;51.40;95039.94;5091437;28;20039;-71
2023/05/07 06:51:56;;;;;;;9.45;7.75;;;;;;;17.47;50.60;95041.28;5073172;28;20098;-71
2023/05/07 06:54:22;;;;;;;9.77;8.55;;;;;;;17.37;50.63;95036.16;5073221;28;20547;-71
2023/05/07 06:56:47;;;;;;;10.77;8.25;;;;;;;17.46;50.31;95036.19;5073368;28;20031;-72
2023/05/07 06:59:13;;;;;;;11.13;8.07;;;;;;;17.51;48.79;95013.69;5091303;28;20096;-72
2023/05/07 07:01:38;;;;;;;9.40;7.47;;;;;;;17.85;49.15;95031.91;5091386;28;20071;-73
2023/05/07 07:04:04;;;;;;;9.52;7.90;;;;;;;18.17;48.72;95029.41;5073298;28;20044;-73
2023/05/07 07:06:31;;;;;;;8.38;7.20;;;;;;;18.50;46.84;95030.13;5073019;28;20089;-72
2023/05/07 07:08:57;;;;;;;10.68;8.45;;;;;;;18.51;47.28;95026.50;5073387;28;20504;-72
2023/05/07 07:11:23;;;;;;;8.98;7.47;;;;;;;18.85;46.13;95033.28;5073119;28;20119;-72
2023/05/07 07:13:48;;;;;;;10.85;8.60;;;;;;;18.77;45.78;95035.94;5073102;28;20021;-72
2023/05/07 07:16:13;;;;;;;11.63;8.32;;;;;;;18.41;46.84;95025.88;5072908;28;20031;-72
2023/05/07 07:18:39;;;;;;;9.63;8.48;;;;;;;18.13;47.55;95007.88;5072968;28;20024;-72
2023/05/07 07:21:05;;;;;;;12.32;8.05;;;;;;;17.67;49.35;95028.63;5091184;28;20024;-72
2023/05/07 07:23:30;;;;;;;8.52;7.22;;;;;;;17.67;49.64;95012.88;5073095;28;20024;-72
2023/05/07 07:25:56;;;;;;;10.57;7.18;;;;;;;17.97;48.06;95024.53;5072977;28;20547;-72
2023/05/07 07:28:21;;;;;;;8.80;7.53;;;;;;;18.29;48.14;95014.91;5090578;28;20460;-72
2023/05/07 07:30:47;;;;;;;8.98;7.18;;;;;;;18.33;47.75;95010.94;5054720;28;20054;-72
2023/05/07 07:33:12;;;;;;;10.25;7.00;;;;;;;18.54;47.13;95011.19;5054663;28;20681;-72
2023/05/07 07:35:38;;;;;;;13.50;8.05;;;;;;;18.87;46.48;95015.50;5071273;28;20024;-72
2023/05/07 07:38:03;;;;;;;8.90;7.20;;;;;;;18.35;47.27;94995.81;5072109;28;20090;-72
2023/05/07 07:40:29;;;;;;;10.35;7.72;;;;;;;18.66;46.93;95011.63;5089342;28;20047;-72
2023/05/07 07:42:54;;;;;;;8.13;7.10;;;;;;;19.01;45.91;95025.28;5055512;28;20418;-72
2023/05/07 07:45:20;;;;;;;11.10;7.63;;;;;;;19.23;45.96;95030.75;5072240;28;20414;-72
2023/05/07 07:47:45;;;;;;;8.82;7.53;;;;;;;19.60;47.11;95028.16;5072511;28;20036;-72
2023/05/07 07:50:11;;;;;;;11.50;7.47;;;;;;;19.74;44.66;95023.13;5072791;28;20035;-73
2023/05/07 07:52:36;;;;;;;9.90;7.85;;;;;;;19.83;43.86;95029.97;5056147;28;20046;-72
2023/05/07 07:55:02;;;;;;;9.68;6.82;;;;;;;19.80;44.54;95033.78;5076025;28;20032;-72
2023/05/07 07:57:27;;;;;;;7.25;6.53;;;;;;;20.02;44.60;95024.19;5095807;28;20169;-75
2023/05/07 07:59:53;;;;;;;9.88;7.22;;;;;;;19.31;45.99;95028.06;5060741;28;20032;-73
2023/05/07 08:02:18;;;;;;;11.27;7.20;;;;;;;19.25;46.37;95032.22;5095229;28;20041;-73
2023/05/07 08:04:43;;;;;;;9.55;7.07;;;;;;;19.46;46.23;95031.56;5076538;28;20052;-72
2023/05/07 08:07:10;;;;;;;9.10;7.65;;;;;;;19.65;46.63;95032.91;5076767;28;20478;-72
2023/05/07 08:09:36;;;;;;;15.13;10.65;;;;;;;19.92;45.13;95028.91;5043220;28;20349;-73
2023/05/07 08:12:02;;;;;;;9.07;7.90;;;;;;;20.08;45.14;95030.56;5076649;28;20559;-73
2023/05/07 08:14:28;;;;;;;9.05;7.30;;;;;;;20.09;43.98;95030.38;5094536;28;20036;-73
2023/05/07 08:16:54;;;;;;;9.93;7.32;;;;;;;19.61;45.75;95006.09;5060063;28;20505;-73
2023/05/07 08:19:20;;;;;;;7.57;6.55;;;;;;;19.92;44.71;95014.88;5059759;28;20024;-73
2023/05/07 08:21:47;;;;;;;9.77;6.93;;;;;;;20.14;44.32;95008.72;5076363;28;20039;-73
2023/05/07 08:24:13;;;;;;;11.25;8.05;;;;;;;20.40;43.00;95013.56;5076578;28;20039;-73
2023/05/07 08:26:39;;;;;;;11.70;7.60;;;;;;;20.34;42.75;95019.56;5059439;28;20039;-72
2023/05/07 08:29:04;;;;;;;10.48;7.47;;;;;;;20.29;42.30;95016.66;5094344;28;20027;-72
2023/05/07 08:31:30;;;;;;;10.77;7.72;;;;;;;20.43;42.79;95013.19;5094347;28;20115;-72
2023/05/07 08:33:56;;;;;;;10.73;7.28;;;;;;;20.53;43.13;95011.13;5059566;28;20020;-72
2023/05/07 08:36:22;;;;;;;13.52;7.53;;;;;;;20.75;42.54;95016.47;5043073;28;20064;-72
2023/05/07 08:38:47;;;;;;;13.77;7.28;;;;;;;20.93;42.49;95008.97;5094103;28;20035;-73
2023/05/07 08:41:13;;;;;;;13.13;7.65;;;;;;;21.00;41.23;95005.56;5094245;28;20036;-73
2023/05/07 08:43:38;;;;;;;12.55;7.53;;;;;;;21.09;40.75;94996.53;5059224;28;20430;-72
2023/05/07 08:46:04;;;;;;;9.35;7.00;;;;;;;21.18;40.48;94995.41;5059212;28;20032;-73
2023/05/07 08:48:30;;;;;;;6.85;5.22;;;;;;;21.38;39.14;95007.00;5075880;28;20028;-73
2023/05/07 08:50:57;;;;;;;9.18;6.20;;;;;;;21.37;39.27;95000.09;5094030;28;20107;-73
2023/05/07 08:53:22;;;;;;;7.78;5.57;;;;;;;21.53;38.14;95003.47;5059188;28;20417;-73
2023/05/07 08:55:48;;;;;;;8.52;5.68;;;;;;;21.77;37.38;94995.16;5075627;28;20024;-73
2023/05/07 08:58:13;;;;;;;8.00;5.53;;;;;;;21.93;38.11;94994.06;5075576;28;20152;-73
2023/05/07 09:00:40;;;;;;;9.40;6.03;;;;;;;21.94;38.28;94992.22;5093471;28;20027;-73
2023/05/07 09:03:05;;;;;;;8.73;5.43;;;;;;;22.00;37.40;94991.44;5038940;28;20415;-73
2023/05/07 09:05:31;;;;;;;8.15;5.03;;;;;;;22.09;36.33;94977.88;5055281;28;20050;-73
2023/05/07 09:07:59;;;;;;;6.88;5.00;;;;;;;22.20;37.39;94989.75;5072073;28;20093;-73
2023/05/07 09:10:25;;;;;;;7.35;4.13;;;;;;;21.69;34.81;94984.72;5055381;28;20027;-73
2023/05/07 09:12:51;;;;;;;6.28;4.43;;;;;;;21.25;34.52;94982.25;5038853;28;20538;-73
2023/05/07 09:15:20;;;;;;;6.10;4.50;;;;;;;21.50;36.86;94977.44;5072081;28;20021;-72
2023/05/07 09:17:46;;;;;;;7.57;4.75;;;;;;;21.56;36.17;94980.16;5074739;28;20086;-73
2023/05/07 09:20:11;;;;;;;6.93;5.10;;;;;;;21.71;36.61;94968.69;5088611;28;20441;-73
2023/05/07 09:22:37;;;;;;;7.40;4.80;;;;;;;22.02;36.40;94971.72;5072798;28;20040;-72
2023/05/07 09:25:03;;;;;;;7.18;5.25;;;;;;;22.07;36.21;94971.97;5071742;28;20031;-72
2023/05/07 09:27:30;;;;;;;6.45;4.60;;;;;;;22.18;35.51;94975.94;5088481;28;20082;-73
2023/05/07 09:29:55;;;;;;;8.55;4.95;;;;;;;22.21;34.39;94970.25;5071494;28;20063;-73
2023/05/07 09:32:21;;;;;;;6.45;4.80;;;;;;;22.19;35.70;94963.53;5072929;28;20036;-73
2023/05/07 09:34:47;;;;;;;5.68;4.60;;;;;;;22.21;34.39;94961.50;5071452;28;20025;-72
2023/05/07 09:37:12;;;;;;;9.68;4.40;;;;;;;22.25;34.93;94955.59;5071275;28;20051;-73
2023/05/07 09:39:45;;;;;;;5.20;4.30;;;;;;;22.28;35.52;94955.22;5071322;28;20029;-72
2023/05/07 09:42:11;;;;;;;5.35;4.35;;;;;;;21.73;34.83;94948.13;5071416;28;20036;-73
2023/05/07 09:44:37;;;;;;;6.85;4.90;;;;;;;20.97;36.42;94954.75;5054681;28;20433;-72
2023/05/07 09:47:05;;;;;;;8.25;4.68;;;;;;;21.15;36.07;94951.72;5071311;28;20037;-71
2023/05/07 09:49:30;;;;;;;5.88;4.45;;;;;;;21.31;36.67;94953.28;5054701;28;20021;-72
2023/05/07 09:51:56;;;;;;;6.22;4.35;;;;;;;21.33;37.12;94945.16;5054585;28;20388;-72
2023/05/07 09:54:22;;;;;;;7.25;4.30;;;;;;;21.42;36.96;94954.59;5054467;28;20036;-72
2023/05/07 09:56:50;;;;;;;6.78;4.05;;;;;;;21.35;36.10;94951.06;5071068;28;20060;-71
2023/05/07 09:59:16;;;;;;;5.65;4.05;;;;;;;21.39;35.40;94950.50;5037610;28;20036;-72
2023/05/07 10:01:42;;;;;;;5.60;5.07;;;;;;;21.41;34.89;94951.16;5054447;28;20102;-71
2023/05/07 10:04:08;;;;;;;6.45;4.22;;;;;;;21.47;35.05;94946.13;5054324;28;20469;-72
2023/05/07 10:06:37;;;;;;;9.07;4.40;;;;;;;21.61;35.58;94932.00;5037559;28;20056;-72
2023/05/07 10:09:03;;;;;;;8.00;4.43;;;;;;;21.63;34.74;94927.34;5054333;28;20050;-73
2023/05/07 10:11:28;;;;;;;4.88;4.38;;;;;;;21.67;34.95;94933.84;5070738;28;20032;-73
2023/05/07 10:13:54;;;;;;;5.95;4.50;;;;;;;21.57;34.73;94920.19;5072028;28;20475;-72
2023/05/07 10:16:21;;;;;;;6.47;4.22;;;;;;;21.78;34.18;94928.03;5070098;28;20422;-72
2023/05/07 10:18:46;;;;;;;6.03;4.10;;;;;;;21.94;34.18;94918.19;5053996;28;20039;-72
2023/05/07 10:21:17;;;;;;;11.43;6.50;;;;;;;21.98;32.93;94906.19;5070565;28;20024;-72
2023/05/07 10:23:45;;;;;;;4.65;3.78;;;;;;;22.11;31.30;94921.31;5054110;28;20032;-72
2023/05/07 10:26:10;;;;;;;3.97;3.33;;;;;;;21.97;31.37;94912.50;5053958;28;20063;-72
2023/05/07 10:28:40;;;;;;;6.10;3.65;;;;;;;22.13;31.31;94908.72;5053850;28;20453;-72
2023/05/07 10:31:15;;;;;;;6.30;3.58;;;;;;;22.15;30.38;94911.97;5054130;28;20099;-72
2023/05/07 10:33:41;;;;;;;4.65;3.38;;;;;;;22.17;30.72;94899.38;5071629;28;20107;-72
2023/05/07 10:36:07;;;;;;;4.50;3.38;;;;;;;22.36;30.07;94909.25;5071568;28;20102;-72
2023/05/07 10:38:33;;;;;;;5.82;3.80;;;;;;;21.97;30.40;94886.88;5070277;28;20028;-72
2023/05/07 10:40:58;;;;;;;4.10;3.63;;;;;;;21.94;30.87;94891.72;5070056;28;20478;-72
2023/05/07 10:43:24;;;;;;;5.93;4.00;;;;;;;22.07;31.32;94891.81;5070306;28;20078;-72
2023/05/07 10:46:10;;;;;;;4.30;3.58;;;;;;;21.99;31.56;94895.44;5086825;28;20509;-72
2023/05/07 10:49:02;;;;;;;7.18;3.65;;;;;;;22.20;31.01;94891.06;5071369;28;20032;-72
2023/05/07 10:51:29;;;;;;;4.22;3.75;;;;;;;22.26;32.78;94891.13;5069767;28;20032;-72
2023/05/07 10:54:14;;;;;;;5.75;4.40;;;;;;;22.37;31.85;94888.91;5053531;28;20024;-72
2023/05/07 10:56:42;;;;;;;6.90;5.30;;;;;;;22.35;32.12;94894.41;5071258;28;20036;-72
2023/05/07 10:59:20;;;;;;;5.88;3.80;;;;;;;22.55;31.10;94891.00;5069880;28;20471;-72
2023/05/07 11:02:03;;;;;;;5.72;4.40;;;;;;;22.59;30.63;94886.94;5071104;28;20032;-72
2023/05/07 11:04:31;;;;;;;6.57;4.72;;;;;;;22.26;31.00;94892.94;5069936;28;20529;-72
2023/05/07 11:07:05;;;;;;;5.85;4.35;;;;;;;22.41;31.44;94892.78;5053531;28;20025;-72
2023/05/07 11:09:53;;;;;;;6.30;4.45;;;;;;;22.51;30.92;94895.88;5070966;28;20086;-72
2023/05/07 11:12:36;;;;;;;4.95;4.30;;;;;;;22.57;31.28;94889.00;5071200;28;20526;-72
2023/05/07 11:15:34;;;;;;;7.28;4.68;;;;;;;22.70;31.33;94891.66;5069673;28;20028;-72
2023/05/07 11:18:00;;;;;;;7.40;4.10;;;;;;;22.78;31.75;94891.47;5070707;28;20052;-72
2023/05/07 11:20:47;;;;;;;7.05;4.20;;;;;;;22.86;31.93;94888.63;5052904;28;20477;-73
2023/05/07 11:23:34;;;;;;;5.15;4.30;;;;;;;22.96;32.15;94883.78;5070881;28;20429;-72
2023/05/07 11:26:03;;;;;;;4.57;4.18;;;;;;;23.01;32.19;94885.81;5070797;28;20025;-72
2023/05/07 11:28:29;;;;;;;7.82;4.57;;;;;;;23.16;31.53;94890.94;5069864;28;20094;-73